Elko Regional Airport
KEKO : rendu visible

Aérodrome :











RETROUVEZ-NOUS SUR...

 
LOGIN :

S'inscrire | Disclaimer

   EN    FR    IT 

 









Légende :    VFR   VFR Marginal   IFR   IFR Intensif   IFR Très Intensif
Visi : 
Plafond : 
>= 8 km
>= 3000ft
5 à 8 km
1000 à 3000 ft
1500m à 5 km
500 à 1000 ft
800 à 1500m
200 à 500 ft
< 800m
< 200 ft
Symboles :   Orages  Brouillard  Fortes neiges  Fortes précipitations  Vent > 20 kt






- Altitude de l'aérodrome : 5140 ft
- Code IATA : EKO


KEKO - Elko Regional

DERNIER METAR :
  • 211656Z AUTO 00000KT 6SM -SN OVC032 02/M03 A2987 RMK AO2 SNB39 SLP120 P0000 T00221033

METARs EXPIRÉS :
  • 211556Z AUTO 00000KT 10SM OVC035 02/M03 A2984 RMK AO2 SLP108 T00171033
  • 211456Z AUTO 00000KT 10SM BKN041 OVC049 01/M04 A2982 RMK AO2 SLP101 T00111039 53002
  • 211423Z AUTO 00000KT 10SM SCT024 SCT032 OVC047 01/M04 A2981 RMK AO2 T00061044

TAF KEKO
Valide du 21 à 16h jusqu'au 22 à 12h UTC


211554Z 2116/2212 23003KT P6SM VCSH OVC040
FM211630 04008KT P6SM -SN OVC020
FM211900 04007KT P6SM FEW020 BKN040 OVC070
FM220200 VRB03KT P6SM BKN050
FM220600 VRB03KT P6SM VCFG FEW010 SCT050



MET'MAP, la Météo Aéronautique d'un coup d'oeil ! - Copyright ORBIFLY Décembre 2007 - Disclaimer

ORBIFLY MET'MAP TEAM :

Programmation & Développement : Alexandra Zaïnal
Conception & Développement : Baudouin d'Aumeries
Co-Programmation & Développement : Marc-Olivier Méhu
Soutien technique & logistique : Manuel Goepfert

Contact : metmap@orbifly.com




SOURCES & CREDITS :

   NOAA       Earth
Advisory